Terminal Aerodrome Forecast
Issued by NWS Sterling, VA

Current Version | Previous Version | Graphics & Text | Print | Product List | Glossary On
Versions: 1 2 3 4 5 6 7 8 9 10 11 12 13 14 15 16 17 18 19 20 21 22 23 24 25 26 27 28 29 30
000
FTUS41 KLWX 082200 AAC
TAFIAD
TAF AMD
KIAD 082219Z 0822/0924 20017G26KT P6SM FEW050 BKN250
     FM082230 VRB40G60KT 1/2SM +TSRA FG BKN030 OVC050CB
     FM082300 VRB15G25KT 4SM -TSRA BR BKN040 OVC060CB
     FM090000 29010G18KT 5SM -RA BR SCT030 BKN050
     FM090300 25006KT P6SM BKN050
     FM090700 23003KT P6SM SCT050 BKN100=

USA.gov is the U.S. government's official web portal to all federal, state and local government web resources and services.